createdAt,value
2023-01-27T00:00:06.233Z,7.80
2023-01-27T00:02:33.286Z,7.97
2023-01-27T00:05:00.448Z,7.17
2023-01-27T00:07:27.134Z,7.17
2023-01-27T00:09:55.967Z,6.87
2023-01-27T00:12:43.438Z,7.13
2023-01-27T00:15:11.811Z,7.23
2023-01-27T00:17:38.540Z,7.67
2023-01-27T00:20:07.028Z,6.97
2023-01-27T00:23:04.696Z,7.67
2023-01-27T00:25:32.272Z,7.03
2023-01-27T00:27:58.955Z,8.10
2023-01-27T00:30:25.659Z,7.40
2023-01-27T00:33:10.819Z,7.90
2023-01-27T00:35:37.550Z,6.87
2023-01-27T00:38:04.217Z,8.40
2023-01-27T00:40:30.904Z,7.50
2023-01-27T00:42:57.581Z,8.67
2023-01-27T00:45:43.036Z,8.90
2023-01-27T00:48:09.739Z,8.63
2023-01-27T00:50:36.442Z,10.27
2023-01-27T00:53:03.126Z,9.10
2023-01-27T00:55:30.500Z,8.30
2023-01-27T00:57:59.242Z,10.57
2023-01-27T01:00:25.909Z,9.17
2023-01-27T01:02:52.712Z,9.07
2023-01-27T01:05:19.427Z,9.30
2023-01-27T01:07:46.112Z,9.30
2023-01-27T01:10:13.098Z,9.23
2023-01-27T01:12:39.952Z,9.80
2023-01-27T01:15:07.111Z,8.07
2023-01-27T01:17:33.783Z,8.80
2023-01-27T01:20:00.479Z,9.23
2023-01-27T01:22:27.205Z,9.23
2023-01-27T01:24:53.897Z,9.23
2023-01-27T01:27:20.618Z,9.10
2023-01-27T01:29:47.430Z,9.13
2023-01-27T01:32:14.204Z,9.33
2023-01-27T01:34:43.279Z,9.97
2023-01-27T01:37:10.083Z,9.50
2023-01-27T01:39:38.102Z,8.83
2023-01-27T01:42:04.823Z,8.33
2023-01-27T01:44:32.627Z,9.10
2023-01-27T01:46:59.984Z,9.43
2023-01-27T01:49:35.363Z,8.93
2023-01-27T01:52:15.844Z,10.23
2023-01-27T01:54:47.886Z,9.37
2023-01-27T01:57:23.069Z,8.90
2023-01-27T02:00:09.211Z,10.40
2023-01-27T02:02:36.886Z,9.83
2023-01-27T02:05:37.526Z,9.67
2023-01-27T02:08:20.012Z,10.43
2023-01-27T02:10:47.852Z,9.83
2023-01-27T02:13:14.676Z,10.00
2023-01-27T02:15:41.505Z,10.10
2023-01-27T02:18:08.400Z,10.53
2023-01-27T02:20:47.288Z,9.90
2023-01-27T02:23:38.692Z,9.90
2023-01-27T02:26:29.212Z,9.07
2023-01-27T02:29:05.011Z,8.97
2023-01-27T02:31:32.541Z,8.90
2023-01-27T02:34:12.116Z,8.60
2023-01-27T02:36:55.653Z,10.10
2023-01-27T02:39:26.350Z,9.03
2023-01-27T02:41:56.731Z,9.20
2023-01-27T02:44:23.655Z,9.57
2023-01-27T02:46:50.342Z,8.93
2023-01-27T02:49:17.257Z,9.37
2023-01-27T02:51:46.638Z,8.33
2023-01-27T02:54:15.180Z,8.97
2023-01-27T02:56:41.862Z,9.73
2023-01-27T02:59:08.558Z,9.47
2023-01-27T03:01:35.535Z,10.00
2023-01-27T03:04:04.938Z,10.83
2023-01-27T03:06:31.636Z,10.57
2023-01-27T03:08:58.385Z,12.63
2023-01-27T03:11:43.798Z,11.83
2023-01-27T03:14:10.543Z,10.30
2023-01-27T03:16:55.911Z,10.50
2023-01-27T03:19:22.616Z,9.67
2023-01-27T03:21:52.776Z,10.17
2023-01-27T03:24:20.555Z,10.57
2023-01-27T03:26:47.467Z,11.60
2023-01-27T03:29:34.546Z,10.07
2023-01-27T03:32:01.223Z,11.13
2023-01-27T03:34:29.983Z,9.73
2023-01-27T03:37:16.990Z,9.40
2023-01-27T03:40:02.373Z,10.60
2023-01-27T03:42:47.887Z,9.83
2023-01-27T03:45:33.387Z,9.07
2023-01-27T03:48:02.494Z,9.60
2023-01-27T03:50:37.979Z,10.97
2023-01-27T03:53:05.813Z,10.30
2023-01-27T03:55:34.209Z,10.23
2023-01-27T03:58:14.215Z,10.10
2023-01-27T04:00:41.292Z,9.87
2023-01-27T04:03:26.489Z,9.70
2023-01-27T04:06:11.888Z,9.63
2023-01-27T04:08:38.624Z,9.97
2023-01-27T04:11:24.214Z,10.07
2023-01-27T04:13:50.874Z,11.07
2023-01-27T04:16:23.471Z,10.50
2023-01-27T04:18:50.693Z,9.97
2023-01-27T04:21:17.406Z,10.73
2023-01-27T04:23:44.093Z,10.57
2023-01-27T04:26:12.848Z,11.10
2023-01-27T04:28:44.592Z,10.30
2023-01-27T04:31:11.970Z,10.07
2023-01-27T04:33:38.844Z,10.13
2023-01-27T04:36:06.044Z,10.50
2023-01-27T04:38:33.028Z,11.03
2023-01-27T04:40:59.812Z,11.77
2023-01-27T04:43:26.896Z,11.13
2023-01-27T04:45:53.702Z,11.27
2023-01-27T04:48:20.441Z,9.63
2023-01-27T04:50:47.259Z,10.77
2023-01-27T04:53:13.934Z,11.47
2023-01-27T04:55:43.743Z,12.10
2023-01-27T04:58:13.338Z,12.07
2023-01-27T05:00:40.148Z,12.80
2023-01-27T05:03:09.391Z,10.63
2023-01-27T05:05:36.722Z,12.47
2023-01-27T05:08:08.285Z,10.20
2023-01-27T05:10:34.972Z,10.47
2023-01-27T05:13:02.238Z,10.93
2023-01-27T05:15:30.334Z,10.50
2023-01-27T05:17:57.067Z,10.53
2023-01-27T05:20:23.787Z,10.83
2023-01-27T05:22:51.799Z,11.20
2023-01-27T05:25:18.532Z,10.50
2023-01-27T05:27:45.531Z,10.83
2023-01-27T05:30:12.765Z,11.40
2023-01-27T05:32:39.436Z,9.23
2023-01-27T05:35:06.712Z,10.10
2023-01-27T05:37:33.471Z,11.37
2023-01-27T05:40:00.214Z,11.73
2023-01-27T05:42:26.893Z,10.50
2023-01-27T05:44:53.582Z,10.60
2023-01-27T05:47:20.329Z,10.63
2023-01-27T05:49:46.984Z,11.30
2023-01-27T05:52:13.693Z,10.40
2023-01-27T05:54:45.149Z,12.20
2023-01-27T05:57:11.825Z,11.97
2023-01-27T05:59:38.494Z,11.57
2023-01-27T06:02:05.355Z,10.87
2023-01-27T06:04:32.048Z,11.10
2023-01-27T06:06:58.783Z,12.10
2023-01-27T06:09:25.497Z,11.20
2023-01-27T06:14:35.013Z,11.03
2023-01-27T06:19:30.226Z,11.97
2023-01-27T06:27:13.962Z,9.97
2023-01-27T06:51:16.654Z,9.30
2023-01-27T06:53:43.359Z,9.13
2023-01-27T06:56:11.773Z,8.87
2023-01-27T06:58:39.625Z,9.40
2023-01-27T07:01:07.191Z,10.50
2023-01-27T07:05:59.548Z,9.37
2023-01-27T07:08:26.737Z,9.53
2023-01-27T07:10:53.456Z,8.20
2023-01-27T07:13:24.579Z,8.20
2023-01-27T07:15:55.504Z,9.37
2023-01-27T07:18:22.769Z,8.80
2023-01-27T07:20:49.539Z,7.47
2023-01-27T07:23:16.253Z,8.57
2023-01-27T07:25:44.515Z,8.90
2023-01-27T07:28:11.208Z,7.40
2023-01-27T07:30:39.152Z,8.13
2023-01-27T07:33:08.007Z,8.33
2023-01-27T07:35:36.955Z,8.03
2023-01-27T07:38:06.091Z,7.73
2023-01-27T07:40:33.045Z,7.37
2023-01-27T07:43:00.778Z,8.80
2023-01-27T07:51:14.708Z,9.83
2023-01-27T07:56:13.317Z,8.77
2023-01-27T09:17:29.671Z,7.77
2023-01-27T09:25:30.137Z,8.77
2023-01-27T09:58:07.971Z,8.83
2023-01-27T10:03:05.935Z,7.40
2023-01-27T10:08:32.369Z,8.20
2023-01-27T10:16:31.208Z,8.40
2023-01-27T10:22:00.449Z,9.93
2023-01-27T10:29:58.361Z,9.70
2023-01-27T10:40:24.835Z,10.37
2023-01-27T11:16:00.403Z,9.50
2023-01-27T11:26:43.712Z,9.70
2023-01-27T11:40:02.882Z,10.13
2023-01-27T11:44:56.245Z,9.47
2023-01-27T12:00:44.297Z,11.60
2023-01-27T12:14:06.000Z,16.77
2023-01-27T12:16:49.061Z,10.33
2023-01-27T12:19:24.003Z,10.73
2023-01-27T12:21:55.731Z,10.67
2023-01-27T12:24:28.113Z,9.40
2023-01-27T12:26:58.618Z,11.03
2023-01-27T12:29:50.520Z,10.13
2023-01-27T12:32:22.146Z,11.00
2023-01-27T12:34:53.054Z,10.87
2023-01-27T12:43:11.616Z,10.23
2023-01-27T12:45:39.028Z,9.60
2023-01-27T12:48:14.873Z,10.60
2023-01-27T12:53:31.084Z,9.40
2023-01-27T12:56:00.064Z,10.27
2023-01-27T12:58:39.248Z,10.60
2023-01-27T13:01:38.346Z,9.80
2023-01-27T13:04:21.555Z,9.30
2023-01-27T13:06:51.400Z,11.10
2023-01-27T13:09:46.471Z,8.60
2023-01-27T13:12:23.423Z,8.27
2023-01-27T13:14:55.239Z,8.03
2023-01-27T13:17:43.762Z,9.10
2023-01-27T13:20:18.248Z,9.20
2023-01-27T13:22:48.627Z,9.90
2023-01-27T13:25:23.494Z,9.50
2023-01-27T13:27:55.214Z,9.20
2023-01-27T13:30:35.148Z,9.77
2023-01-27T13:36:04.549Z,9.70
2023-01-27T13:49:32.385Z,11.13
2023-01-27T13:52:01.315Z,11.60
2023-01-27T13:54:32.426Z,11.80
2023-01-27T13:57:23.118Z,13.20
2023-01-27T14:00:00.787Z,13.30
2023-01-27T14:02:47.211Z,12.20
2023-01-27T14:05:48.143Z,11.20
2023-01-27T14:08:42.154Z,12.17
2023-01-27T14:11:48.473Z,13.10
2023-01-27T14:14:52.538Z,16.50
2023-01-27T14:17:33.630Z,13.07
2023-01-27T14:20:58.372Z,14.13
2023-01-27T14:23:30.680Z,14.30
2023-01-27T14:26:10.977Z,14.70
2023-01-27T14:29:19.151Z,12.07
2023-01-27T14:31:49.535Z,11.53
2023-01-27T14:34:53.696Z,10.70
2023-01-27T14:37:23.356Z,12.30
2023-01-27T14:40:13.480Z,11.33
2023-01-27T14:42:51.071Z,10.93
2023-01-27T14:45:21.503Z,10.03
2023-01-27T14:48:09.418Z,12.10
2023-01-27T14:51:01.042Z,12.53
2023-01-27T14:54:00.779Z,9.97
2023-01-27T14:57:14.715Z,10.30
2023-01-27T14:59:53.245Z,11.20
2023-01-27T15:02:44.084Z,10.70
2023-01-27T15:05:21.735Z,11.47
2023-01-27T15:08:09.670Z,11.07
2023-01-27T15:10:41.763Z,10.50
2023-01-27T15:13:26.798Z,11.60
2023-01-27T15:16:19.365Z,11.40
2023-01-27T15:19:07.214Z,11.23
2023-01-27T15:22:12.171Z,10.33
2023-01-27T15:25:08.432Z,11.40
2023-01-27T15:27:35.436Z,13.03
2023-01-27T15:33:45.230Z,9.93
2023-01-27T15:36:17.935Z,10.90
2023-01-27T15:39:12.853Z,10.13
2023-01-27T15:42:01.209Z,10.60
2023-01-27T15:44:34.486Z,13.77
2023-01-27T15:47:25.444Z,11.03
2023-01-27T15:50:24.452Z,15.60
2023-01-27T15:52:51.855Z,14.07
2023-01-27T15:55:47.203Z,11.77
2023-01-27T15:58:28.968Z,11.57
2023-01-27T16:00:57.149Z,12.63
2023-01-27T16:03:40.254Z,12.30
2023-01-27T16:06:15.997Z,12.33
2023-01-27T16:08:49.063Z,12.03
2023-01-27T16:11:30.748Z,12.93
2023-01-27T16:14:25.867Z,11.53
2023-01-27T16:16:52.507Z,13.27
2023-01-27T16:20:08.301Z,12.80
2023-01-27T16:22:39.129Z,11.80
2023-01-27T16:25:28.878Z,13.83
2023-01-27T16:28:23.413Z,13.57
2023-01-27T16:31:07.886Z,13.20
2023-01-27T16:33:39.018Z,12.70
2023-01-27T16:36:09.496Z,14.67
2023-01-27T16:38:41.477Z,13.77
2023-01-27T16:41:25.146Z,14.27
2023-01-27T16:44:23.523Z,13.07
2023-01-27T16:47:17.084Z,14.00
2023-01-27T16:49:46.907Z,15.50
2023-01-27T16:52:21.307Z,14.90
2023-01-27T16:54:53.377Z,14.03
2023-01-27T16:57:36.199Z,15.73
2023-01-27T17:00:11.049Z,13.27
2023-01-27T17:02:39.059Z,14.53
2023-01-27T17:05:15.429Z,14.77
2023-01-27T17:08:07.372Z,14.53
2023-01-27T17:10:35.423Z,15.13
2023-01-27T17:13:03.977Z,15.80
2023-01-27T17:15:39.907Z,15.10
2023-01-27T17:18:11.258Z,14.90
2023-01-27T17:20:42.611Z,15.20
2023-01-27T17:23:21.296Z,14.47
2023-01-27T17:25:49.084Z,14.63
2023-01-27T17:28:26.608Z,13.07
2023-01-27T17:31:06.091Z,15.37
2023-01-27T17:33:34.371Z,14.70
2023-01-27T17:36:09.910Z,15.27
2023-01-27T17:38:43.108Z,15.70
2023-01-27T17:41:34.043Z,17.90
2023-01-27T17:44:01.847Z,13.77
2023-01-27T17:46:33.835Z,15.67
2023-01-27T17:49:23.051Z,15.77
2023-01-27T17:51:55.634Z,16.13
2023-01-27T17:54:32.402Z,16.20
2023-01-27T17:57:01.789Z,15.90
2023-01-27T17:59:28.890Z,15.60
2023-01-27T18:02:00.829Z,17.33
2023-01-27T18:04:27.588Z,16.43
2023-01-27T18:06:54.504Z,17.03
2023-01-27T18:09:26.333Z,17.03
2023-01-27T18:11:59.598Z,18.13
2023-01-27T18:14:27.096Z,19.17
2023-01-27T18:17:02.172Z,17.97
2023-01-27T18:19:28.980Z,17.80
2023-01-27T18:22:22.575Z,16.30
2023-01-27T18:25:01.958Z,17.07
2023-01-27T18:27:32.775Z,19.60
2023-01-27T18:30:20.404Z,24.03
2023-01-27T18:32:51.035Z,20.13
2023-01-27T18:35:32.697Z,18.83
2023-01-27T18:38:02.933Z,18.67
2023-01-27T18:40:35.850Z,17.60
2023-01-27T18:43:05.020Z,18.63
2023-01-27T18:45:40.794Z,19.83
2023-01-27T18:48:13.672Z,17.83
2023-01-27T18:50:43.080Z,17.50
2023-01-27T18:53:17.189Z,18.53
2023-01-27T18:55:44.205Z,21.80
2023-01-27T18:58:13.808Z,26.67
2023-01-27T19:00:49.676Z,21.93
2023-01-27T19:03:19.820Z,19.10
2023-01-27T19:05:47.813Z,18.37
2023-01-27T19:08:20.363Z,16.97
2023-01-27T19:10:48.420Z,17.63
2023-01-27T19:13:16.755Z,17.53
2023-01-27T19:15:52.583Z,16.73
2023-01-27T19:18:25.853Z,17.27
2023-01-27T19:20:53.143Z,16.50
2023-01-27T19:23:20.945Z,18.27
2023-01-27T19:25:55.249Z,15.73
2023-01-27T19:28:33.550Z,17.10
2023-01-27T19:31:01.706Z,16.53
2023-01-27T19:33:33.872Z,18.53
2023-01-27T19:36:11.795Z,15.43
2023-01-27T19:38:43.636Z,15.30
2023-01-27T19:41:10.931Z,17.07
2023-01-27T19:43:40.336Z,16.37
2023-01-27T19:46:13.996Z,15.20
2023-01-27T19:48:40.879Z,14.60
2023-01-27T19:51:10.539Z,15.60
2023-01-27T19:53:37.591Z,16.00
2023-01-27T19:56:13.803Z,17.37
2023-01-27T19:58:40.926Z,23.63
2023-01-27T20:01:09.509Z,19.03
2023-01-27T20:03:36.209Z,16.83
2023-01-27T20:06:05.531Z,17.83
2023-01-27T20:08:32.227Z,15.90
2023-01-27T20:10:58.925Z,15.83
2023-01-27T20:13:26.798Z,15.53
2023-01-27T20:15:53.535Z,15.67
2023-01-27T20:18:22.794Z,17.60
2023-01-27T20:20:53.320Z,18.60
2023-01-27T20:23:20.087Z,15.07
2023-01-27T20:25:46.860Z,16.27
2023-01-27T20:28:13.591Z,16.67
2023-01-27T20:30:42.051Z,16.50
2023-01-27T20:33:10.188Z,15.83
2023-01-27T20:35:40.262Z,16.27
2023-01-27T20:38:10.317Z,16.70
2023-01-27T20:40:37.431Z,17.23
2023-01-27T20:43:04.091Z,18.30
2023-01-27T20:45:32.307Z,17.93
2023-01-27T20:47:59.702Z,18.00
2023-01-27T20:50:28.484Z,17.60
2023-01-27T20:52:55.265Z,16.13
2023-01-27T20:55:26.956Z,18.80
2023-01-27T20:57:53.683Z,17.47
2023-01-27T21:00:25.015Z,16.53
2023-01-27T21:02:51.682Z,18.50
2023-01-27T21:05:19.144Z,16.00
2023-01-27T21:07:47.740Z,15.73
2023-01-27T21:10:15.676Z,15.40
2023-01-27T21:12:42.356Z,16.57
2023-01-27T21:15:12.633Z,15.60
2023-01-27T21:17:43.050Z,13.70
2023-01-27T21:20:10.460Z,13.03
2023-01-27T21:22:37.150Z,14.37
2023-01-27T21:25:04.035Z,14.20
2023-01-27T21:27:30.708Z,12.50
2023-01-27T21:29:57.406Z,13.20
2023-01-27T21:32:26.243Z,12.03
2023-01-27T21:34:53.045Z,12.10
2023-01-27T21:37:19.761Z,11.13
2023-01-27T21:39:46.406Z,11.93
2023-01-27T21:42:14.391Z,12.27
2023-01-27T21:44:59.998Z,12.57
2023-01-27T21:47:30.519Z,14.13
2023-01-27T21:50:00.264Z,12.30
2023-01-27T21:52:35.715Z,11.70
2023-01-27T21:55:07.319Z,13.53
2023-01-27T21:57:34.808Z,13.00
2023-01-27T22:00:01.622Z,11.23
2023-01-27T22:02:29.439Z,12.27
2023-01-27T22:04:56.121Z,12.77
2023-01-27T22:07:22.821Z,11.43
2023-01-27T22:09:51.955Z,12.50
2023-01-27T22:12:18.742Z,13.30
2023-01-27T22:14:47.567Z,13.57
2023-01-27T22:17:17.365Z,12.97
2023-01-27T22:19:48.199Z,12.97
2023-01-27T22:22:16.738Z,12.80
2023-01-27T22:24:44.138Z,13.57
2023-01-27T22:27:10.835Z,12.47
2023-01-27T22:29:37.544Z,13.43
2023-01-27T22:32:04.298Z,12.43
2023-01-27T22:34:35.511Z,14.53
2023-01-27T22:37:02.253Z,14.60
2023-01-27T22:39:28.950Z,13.50
2023-01-27T22:42:03.079Z,16.37
2023-01-27T22:44:30.996Z,12.50
2023-01-27T22:46:57.686Z,13.33
2023-01-27T22:49:24.370Z,12.53
2023-01-27T22:51:55.428Z,14.37
2023-01-27T22:54:22.181Z,13.67
2023-01-27T22:56:48.877Z,13.30
2023-01-27T22:59:15.613Z,15.53
2023-01-27T23:01:42.274Z,15.40
2023-01-27T23:04:11.913Z,15.43
2023-01-27T23:06:40.300Z,14.20
2023-01-27T23:09:06.979Z,14.40
2023-01-27T23:11:35.890Z,14.77
2023-01-27T23:14:02.659Z,14.20
2023-01-27T23:16:30.988Z,14.67
2023-01-27T23:18:57.723Z,16.13
2023-01-27T23:21:24.424Z,15.83
2023-01-27T23:23:51.350Z,15.87
2023-01-27T23:26:18.075Z,14.37
2023-01-27T23:28:47.295Z,15.27
2023-01-27T23:31:17.050Z,14.83
2023-01-27T23:33:51.891Z,14.83
2023-01-27T23:36:18.643Z,13.90
2023-01-27T23:38:47.450Z,14.10
2023-01-27T23:41:18.253Z,15.17
2023-01-27T23:43:52.064Z,14.37
2023-01-27T23:46:19.554Z,15.63
2023-01-27T23:48:57.739Z,16.00
2023-01-27T23:51:24.469Z,14.50
2023-01-27T23:53:51.260Z,15.17
2023-01-27T23:56:19.921Z,15.00
2023-01-27T23:58:47.313Z,13.00
